Time;durP1;ratioP1;P1;durP2;ratioP2;P2;SDS_P1;SDS_P2;PMS_P1;PMS_P2;Temp;Humidity;BMP_temperature;BMP_pressure;BME280_temperature;BME280_humidity;BME280_pressure;Samples;Min_cycle;Max_cycle;Signal;HPM_P1;HPM_P2
2023/12/22 00:00:05;;;;;;;;;4.00;2.00;;;;;21.50;50.85;96898.33;111491;1264;19561;-29
2023/12/22 00:02:33;;;;;;;;;1.00;1.00;;;;;21.48;50.97;96891.85;111494;1253;19387;-29
2023/12/22 00:05:01;;;;;;;;;1.50;1.00;;;;;21.48;50.97;96887.02;111480;1267;19828;-29
2023/12/22 00:07:28;;;;;;;;;1.00;1.00;;;;;21.53;50.58;96885.39;111516;1252;19707;-29
2023/12/22 00:09:56;;;;;;;;;2.00;2.00;;;;;21.54;50.64;96877.84;111464;1267;19304;-29
2023/12/22 00:12:23;;;;;;;;;2.00;2.00;;;;;21.52;50.55;96864.38;111545;1252;20165;-28
2023/12/22 00:14:50;;;;;;;;;1.00;1.00;;;;;21.52;50.40;96866.85;111481;1267;18473;-28
2023/12/22 00:17:18;;;;;;;;;1.00;1.00;;;;;21.52;50.64;96867.16;111563;1252;19557;-28
2023/12/22 00:19:45;;;;;;;;;1.67;1.00;;;;;21.53;50.30;96865.08;111460;1252;20056;-28
2023/12/22 00:22:13;;;;;;;;;1.00;1.00;;;;;21.56;50.08;96872.27;111588;1267;18229;-29
2023/12/22 00:24:40;;;;;;;;;1.50;1.50;;;;;21.53;50.19;96867.18;111503;1267;17897;-28
2023/12/22 00:27:07;;;;;;;;;1.00;1.00;;;;;21.56;50.14;96881.39;111612;1253;19987;-29
2023/12/22 00:29:37;;;;;;;;;3.67;2.00;;;;;21.54;50.31;96887.12;111512;1267;18160;-29
2023/12/22 00:32:04;;;;;;;;;1.00;1.00;;;;;21.54;49.98;96876.92;111496;1252;19166;-29
2023/12/22 00:34:31;;;;;;;;;1.00;1.00;;;;;21.54;49.92;96877.86;111475;1260;20143;-28
2023/12/22 00:36:59;;;;;;;;;2.00;1.00;;;;;21.54;49.93;96876.76;111435;1268;20675;-29
2023/12/22 00:39:27;;;;;;;;;2.00;2.00;;;;;21.53;49.80;96875.52;111516;1267;18162;-29
2023/12/22 00:41:54;;;;;;;;;1.00;1.00;;;;;21.52;49.87;96872.45;111644;1252;18600;-29
2023/12/22 00:44:22;;;;;;;;;1.00;1.00;;;;;21.52;49.86;96880.16;111437;1252;19793;-29
2023/12/22 00:46:49;;;;;;;;;1.50;1.00;;;;;21.53;49.79;96890.29;111666;1252;19195;-29
2023/12/22 00:49:18;;;;;;;;;1.00;1.00;;;;;21.53;49.58;96886.31;111439;1267;18856;-29
2023/12/22 00:51:45;;;;;;;;;1.50;1.50;;;;;21.51;49.61;96884.89;111702;1252;19604;-29
2023/12/22 00:54:12;;;;;;;;;1.00;1.00;;;;;21.52;49.63;96878.98;111602;1253;20371;-29
2023/12/22 00:56:40;;;;;;;;;1.00;1.00;;;;;21.53;49.52;96879.56;111685;1252;20051;-28
2023/12/22 00:59:07;;;;;;;;;1.00;1.00;;;;;21.50;49.78;96890.55;111521;1253;19660;-29
2023/12/22 01:01:35;;;;;;;;;1.00;1.00;;;;;21.49;49.52;96882.83;111659;1267;18149;-29
2023/12/22 01:04:02;;;;;;;;;2.00;1.00;;;;;21.49;49.62;96889.61;111493;1267;18608;-29
2023/12/22 01:06:29;;;;;;;;;1.00;1.00;;;;;21.50;49.65;96888.70;111729;1260;20005;-29
2023/12/22 01:08:57;;;;;;;;;1.00;1.00;;;;;21.48;49.34;96890.06;111491;1267;18943;-29
2023/12/22 01:11:24;;;;;;;;;1.00;1.00;;;;;21.49;49.38;96901.20;111439;1253;307811;-29
2023/12/22 01:13:52;;;;;;;;;2.00;2.00;;;;;21.49;49.39;96904.38;111531;1267;19552;-29
2023/12/22 01:16:22;;;;;;;;;1.00;1.00;;;;;21.47;49.24;96922.48;111562;1252;19409;-29
2023/12/22 01:18:49;;;;;;;;;;;;;;;21.47;49.41;96934.23;111512;1252;18735;-29
2023/12/22 01:21:16;;;;;;;;;1.00;1.00;;;;;21.49;48.90;96943.98;111580;1267;18213;-29
2023/12/22 01:23:44;;;;;;;;;1.00;1.00;;;;;21.50;49.10;96942.59;111455;1252;20618;-29
2023/12/22 01:26:11;;;;;;;;;1.00;1.00;;;;;21.49;49.13;96945.55;111618;1253;20105;-29
2023/12/22 01:28:39;;;;;;;;;1.00;1.00;;;;;21.49;48.94;96947.25;111439;1268;18263;-29
2023/12/22 01:31:06;;;;;;;;;3.00;1.00;;;;;21.49;49.11;96960.55;111579;1267;17888;-29
2023/12/22 01:33:33;;;;;;;;;1.00;1.00;;;;;21.49;48.99;96952.15;111449;1265;20710;-29
2023/12/22 01:36:01;;;;;;;;;1.00;1.00;;;;;21.50;48.98;96952.24;111552;1267;18235;-29
2023/12/22 01:38:28;;;;;;;;;1.00;1.00;;;;;21.49;48.86;96948.80;111484;1252;19238;-29
2023/12/22 01:40:56;;;;;;;;;1.00;1.00;;;;;21.48;48.88;96945.06;111563;1251;19889;-29
2023/12/22 01:43:23;;;;;;;;;1.00;1.00;;;;;21.48;49.00;96944.59;111464;1252;19681;-29
2023/12/22 01:45:51;;;;;;;;;1.00;1.00;;;;;21.50;48.90;96951.30;111540;1260;19160;-29
2023/12/22 01:48:18;;;;;;;;;1.00;1.00;;;;;21.52;48.93;96953.30;111479;1267;18615;-28
2023/12/22 01:50:46;;;;;;;;;1.00;1.00;;;;;21.51;48.87;96950.00;111592;1267;19602;-29
2023/12/22 01:53:13;;;;;;;;;1.00;1.00;;;;;21.49;48.80;96951.45;111425;1267;19392;-29
2023/12/22 01:55:40;;;;;;;;;1.00;1.00;;;;;21.48;48.83;96949.96;111612;1252;18651;-29
2023/12/22 01:58:08;;;;;;;;;1.00;1.00;;;;;21.47;48.78;96940.30;111494;1252;19649;-29
2023/12/22 02:00:35;;;;;;;;;1.00;1.00;;;;;21.47;48.83;96949.16;111582;1252;19342;-28
2023/12/22 02:03:03;;;;;;;;;1.00;1.00;;;;;21.46;48.96;96954.73;111508;1267;19974;-29
2023/12/22 02:05:30;;;;;;;;;;;;;;;21.51;48.95;96955.14;111431;1268;20875;-29
2023/12/22 02:07:57;;;;;;;;;1.00;1.00;;;;;21.48;48.74;96947.01;111562;1252;17527;-29
2023/12/22 02:10:25;;;;;;;;;1.00;1.00;;;;;21.47;48.83;96948.30;111525;1252;20049;-29
2023/12/22 02:12:52;;;;;;;;;1.00;1.00;;;;;21.49;48.96;96959.38;111593;1252;18194;-29
2023/12/22 02:15:20;;;;;;;;;1.00;1.00;;;;;21.47;48.79;96958.34;111503;1252;19404;-29
2023/12/22 02:17:47;;;;;;;;;1.00;1.00;;;;;21.46;48.61;96950.94;111595;1267;18606;-28
2023/12/22 02:20:33;;;;;;;;;1.00;1.00;;;;;21.48;48.89;96955.94;111570;1252;19618;-29
2023/12/22 02:23:00;;;;;;;;;1.00;1.00;;;;;21.46;48.66;96955.77;111528;1252;19196;-29
2023/12/22 02:25:27;;;;;;;;;1.00;1.00;;;;;21.45;48.67;96957.38;111569;1267;19947;-29
2023/12/22 02:27:55;;;;;;;;;1.00;1.00;;;;;21.44;48.84;96963.28;111563;1253;20814;-29
2023/12/22 02:30:22;;;;;;;;;1.00;1.00;;;;;21.44;48.58;96962.80;111641;1253;17910;-29
2023/12/22 02:32:49;;;;;;;;;3.00;3.00;;;;;21.45;48.90;96964.31;111590;1253;20331;-28
2023/12/22 02:35:17;;;;;;;;;2.00;1.00;;;;;21.46;48.96;96965.48;111537;1252;18194;-29
2023/12/22 02:37:44;;;;;;;;;1.00;1.00;;;;;21.46;48.61;96974.66;111417;1268;19330;-29
2023/12/22 02:40:11;;;;;;;;;1.00;1.00;;;;;21.44;48.81;96971.29;111487;1253;20161;-29
2023/12/22 02:42:39;;;;;;;;;1.00;1.00;;;;;21.42;48.70;96971.10;111472;1252;19668;-29
2023/12/22 02:45:06;;;;;;;;;1.00;1.00;;;;;21.43;48.73;96970.27;111517;1253;20473;-29
2023/12/22 02:47:33;;;;;;;;;1.00;1.00;;;;;21.42;48.63;96968.08;111537;1252;18554;-29
2023/12/22 02:50:00;;;;;;;;;1.00;1.00;;;;;21.42;48.82;96966.67;111540;1253;19648;-29
2023/12/22 02:52:28;;;;;;;;;1.00;1.00;;;;;21.45;48.55;96971.14;111566;1252;19223;-29
2023/12/22 02:54:55;;;;;;;;;1.00;1.00;;;;;21.46;48.65;96979.48;111603;1252;20061;-29
2023/12/22 02:57:22;;;;;;;;;1.33;1.33;;;;;21.48;48.60;96966.37;111455;1252;18204;-28
2023/12/22 02:59:50;;;;;;;;;1.00;1.00;;;;;21.47;48.52;96981.77;111647;1267;19697;-29
2023/12/22 03:02:17;;;;;;;;;1.00;1.00;;;;;21.46;48.68;96970.85;111521;1267;18615;-29
2023/12/22 03:04:46;;;;;;;;;1.00;1.00;;;;;21.44;48.57;96975.41;111498;1253;19660;-29
2023/12/22 03:07:13;;;;;;;;;1.00;1.00;;;;;21.45;48.59;96978.62;111467;1253;18045;-29
2023/12/22 03:09:40;;;;;;;;;1.00;1.00;;;;;21.45;48.73;96973.49;111628;1253;18608;-29
2023/12/22 03:12:07;;;;;;;;;1.50;1.00;;;;;21.44;48.70;96967.33;111512;1267;18177;-29
2023/12/22 03:14:35;;;;;;;;;1.00;1.00;;;;;21.43;48.46;96964.05;111648;1256;19301;-28
2023/12/22 03:17:02;;;;;;;;;1.00;1.00;;;;;21.42;48.51;96980.05;111577;1260;19947;-29
2023/12/22 03:19:29;;;;;;;;;1.00;1.00;;;;;21.41;48.69;96965.41;111458;1253;19619;-29
2023/12/22 03:21:57;;;;;;;;;1.00;1.00;;;;;21.40;48.66;96967.73;111653;1267;18079;-29
2023/12/22 03:24:24;;;;;;;;;1.00;1.00;;;;;21.41;48.36;96975.83;111465;1267;18584;-28
2023/12/22 03:26:51;;;;;;;;;1.00;1.00;;;;;21.43;48.33;96979.05;111674;1267;18274;-29
2023/12/22 03:29:19;;;;;;;;;1.00;1.00;;;;;21.43;48.29;96983.26;111456;1268;17916;-29
2023/12/22 03:31:46;;;;;;;;;1.00;1.00;;;;;21.43;48.57;96991.19;111684;1253;19907;-29
2023/12/22 03:34:14;;;;;;;;;1.00;1.00;;;;;21.44;48.28;96989.17;111491;1253;19628;-29
2023/12/22 03:36:41;;;;;;;;;1.00;1.00;;;;;21.44;48.24;96983.58;111651;1260;19207;-29
2023/12/22 03:39:09;;;;;;;;;1.00;1.00;;;;;21.45;48.29;96976.91;111507;1253;20055;-29
2023/12/22 03:41:36;;;;;;;;;2.00;1.00;;;;;21.46;48.51;96982.67;111737;1260;19536;-29
2023/12/22 03:44:03;;;;;;;;;1.00;1.00;;;;;21.46;48.13;96980.27;111519;1260;17925;-29
2023/12/22 03:46:31;;;;;;;;;1.00;1.00;;;;;21.43;48.49;96993.37;111619;1267;19794;-29
2023/12/22 03:48:58;;;;;;;;;1.00;1.00;;;;;21.43;48.43;96989.64;111551;1252;19518;-29
2023/12/22 03:51:25;;;;;;;;;1.00;1.00;;;;;21.43;48.41;96993.29;111535;1267;20792;-29
2023/12/22 03:53:53;;;;;;;;;1.00;1.00;;;;;21.44;48.48;96992.23;111594;1260;19987;-29
2023/12/22 03:56:20;;;;;;;;;1.00;1.00;;;;;21.45;48.22;97003.59;111468;1252;20912;-29
2023/12/22 03:58:47;;;;;;;;;1.00;1.00;;;;;21.44;48.15;97005.20;111632;1252;19366;-29
2023/12/22 04:01:14;;;;;;;;;1.00;1.00;;;;;21.44;48.35;97009.02;111531;1267;18571;-29
2023/12/22 04:03:42;;;;;;;;;1.00;1.00;;;;;21.43;48.21;97013.74;111688;1253;20793;-29
2023/12/22 04:06:09;;;;;;;;;1.00;1.00;;;;;21.43;48.28;97013.04;111520;1252;19285;-29
2023/12/22 04:08:36;;;;;;;;;1.00;1.00;;;;;21.45;48.40;97019.60;111718;1267;18614;-29
2023/12/22 04:11:03;;;;;;;;;1.00;1.00;;;;;21.46;48.30;97025.92;111499;1260;19625;-29
2023/12/22 04:13:31;;;;;;;;;1.00;1.00;;;;;21.46;48.07;97025.46;111457;1267;17789;-29
2023/12/22 04:15:58;;;;;;;;;1.00;1.00;;;;;21.46;47.98;97019.94;111524;1267;18602;-29
2023/12/22 04:18:25;;;;;;;;;1.00;1.00;;;;;21.45;48.27;97021.95;111457;1253;19656;-29
2023/12/22 04:20:55;;;;;;;;;1.33;1.33;;;;;21.43;48.11;97023.55;111564;1260;19324;-29
2023/12/22 04:23:22;;;;;;;;;1.00;1.00;;;;;21.44;47.92;97026.60;111627;1267;18607;-29
2023/12/22 04:25:49;;;;;;;;;1.00;1.00;;;;;21.42;48.32;97020.66;111608;1253;19642;-29
2023/12/22 04:28:17;;;;;;;;;1.00;1.00;;;;;21.44;47.95;97020.30;111483;1253;19376;-29
2023/12/22 04:30:44;;;;;;;;;1.00;1.00;;;;;21.40;48.02;97021.17;111470;1260;20442;-29
2023/12/22 04:33:11;;;;;;;;;1.00;1.00;;;;;21.42;48.19;97020.04;111438;1267;21239;-29
2023/12/22 04:35:38;;;;;;;;;1.00;1.00;;;;;21.42;48.16;97016.14;111477;1252;17910;-29
2023/12/22 04:38:06;;;;;;;;;1.00;1.00;;;;;21.45;47.79;97020.55;111444;1267;19994;-29
2023/12/22 04:40:33;;;;;;;;;1.00;1.00;;;;;21.42;48.23;97024.54;111532;1267;19007;-29
2023/12/22 04:43:00;;;;;;;;;1.00;1.00;;;;;21.40;48.09;97020.23;111529;1253;19346;-29
2023/12/22 04:45:28;;;;;;;;;1.00;1.00;;;;;21.43;47.90;97024.17;111584;1254;20038;-29
2023/12/22 04:47:55;;;;;;;;;1.00;1.00;;;;;21.42;48.17;97030.38;111559;1260;19468;-29
2023/12/22 04:50:22;;;;;;;;;1.00;1.00;;;;;21.42;47.92;97019.56;111488;1252;17884;-28
2023/12/22 04:52:50;;;;;;;;;1.00;1.00;;;;;21.42;47.79;97017.30;111605;1267;18700;-29
2023/12/22 04:55:17;;;;;;;;;1.00;1.00;;;;;21.43;48.03;97015.92;111546;1252;19639;-29
2023/12/22 04:57:45;;;;;;;;;1.00;1.00;;;;;21.43;47.88;97023.38;111574;1260;19168;-29
2023/12/22 05:00:12;;;;;;;;;1.00;1.00;;;;;21.43;47.83;97025.65;111555;1252;21322;-29
2023/12/22 05:02:39;;;;;;;;;1.00;1.00;;;;;21.42;47.91;97021.98;111608;1267;18134;-29
2023/12/22 05:05:08;;;;;;;;;1.00;1.00;;;;;21.43;47.87;97029.14;111602;1252;18029;-29
2023/12/22 05:07:35;;;;;;;;;1.00;1.00;;;;;21.41;48.05;97037.59;111589;1252;20189;-29
2023/12/22 05:10:02;;;;;;;;;1.00;1.00;;;;;21.42;48.06;97035.98;111561;1253;19830;-29
2023/12/22 05:12:30;;;;;;;;;1.00;1.00;;;;;21.43;47.95;97036.62;111572;1267;18210;-29
2023/12/22 05:14:58;;;;;;;;;1.00;1.00;;;;;21.42;47.83;97033.33;111561;1260;21201;-29
2023/12/22 05:17:25;;;;;;;;;1.00;1.00;;;;;21.44;47.86;97032.13;111592;1267;18161;-29
2023/12/22 05:19:52;;;;;;;;;1.00;1.00;;;;;21.43;47.88;97035.29;111625;1260;17965;-29
2023/12/22 05:22:20;;;;;;;;;1.00;1.00;;;;;21.42;47.94;97043.29;111601;1254;18597;-28
2023/12/22 05:24:47;;;;;;;;;1.00;1.00;;;;;21.41;48.06;97047.55;111609;1267;18433;-28
2023/12/22 05:27:15;;;;;;;;;1.00;1.00;;;;;21.40;47.69;97045.90;111617;1263;19145;-29
2023/12/22 05:29:42;;;;;;;;;1.00;1.00;;;;;21.41;47.61;97043.60;111539;1268;19960;-29
2023/12/22 05:32:09;;;;;;;;;1.00;1.00;;;;;21.42;47.67;97049.96;111450;1268;18218;-28
2023/12/22 05:34:37;;;;;;;;;1.00;1.00;;;;;21.41;47.55;97055.64;111506;1268;19365;-29
2023/12/22 05:37:04;;;;;;;;;2.00;2.00;;;;;21.40;47.70;97056.86;111457;1252;21534;-29
2023/12/22 05:39:32;;;;;;;;;1.00;1.00;;;;;21.39;47.65;97052.11;111496;1253;19601;-29
2023/12/22 05:42:00;;;;;;;;;1.00;1.00;;;;;21.39;47.67;97050.87;111451;1252;19378;-29
2023/12/22 05:44:29;;;;;;;;;2.00;2.00;;;;;21.42;47.46;97053.48;111458;1252;20029;-28
2023/12/22 05:46:56;;;;;;;;;1.00;1.00;;;;;21.42;47.33;97046.33;111522;1253;19635;-29
2023/12/22 05:49:25;;;;;;;;;1.00;1.00;;;;;21.41;47.46;97050.75;111525;1267;17901;-28
2023/12/22 05:51:52;;;;;;;;;2.00;2.00;;;;;21.41;47.41;97045.83;111546;1252;20217;-29
2023/12/22 05:54:20;;;;;;;;;1.00;1.00;;;;;21.41;47.15;97047.92;111516;1260;18197;-28
2023/12/22 05:56:47;;;;;;;;;1.00;1.00;;;;;21.39;47.59;97042.46;111456;1253;19346;-29
2023/12/22 05:59:14;;;;;;;;;1.00;1.00;;;;;21.39;47.42;97041.23;111589;1252;18651;-29
2023/12/22 06:01:42;;;;;;;;;1.50;1.50;;;;;21.39;47.23;97039.50;111511;1253;19606;-29
2023/12/22 06:04:09;;;;;;;;;2.00;2.00;;;;;21.35;47.68;97052.20;111510;1267;17917;-29
2023/12/22 06:06:38;;;;;;;;;1.00;1.00;;;;;21.38;47.92;97057.38;111568;1267;19819;-29
2023/12/22 06:09:05;;;;;;;;;1.00;1.00;;;;;21.39;48.18;97056.84;111540;1267;19425;-28
2023/12/22 06:11:32;;;;;;;;;1.00;1.00;;;;;21.39;47.96;97053.20;111471;1260;19259;-29
2023/12/22 06:14:00;;;;;;;;;1.00;1.00;;;;;21.41;47.75;97042.65;111614;1252;21209;-28
2023/12/22 06:16:27;;;;;;;;;1.00;1.00;;;;;21.44;47.53;97047.27;111517;1252;19959;-29
2023/12/22 06:18:54;;;;;;;;;1.00;1.00;;;;;21.41;47.61;97049.17;111580;1253;19255;-29
2023/12/22 06:21:21;;;;;;;;;2.00;2.00;;;;;21.42;47.53;97057.29;111447;1260;20323;-29
2023/12/22 06:23:49;;;;;;;;;1.00;1.00;;;;;21.41;47.45;97060.85;111455;1253;19640;-29
2023/12/22 06:26:16;;;;;;;;;1.00;1.00;;;;;21.41;47.62;97068.30;111536;1253;19331;-28
2023/12/22 06:28:43;;;;;;;;;1.00;1.00;;;;;21.41;47.25;97075.80;111517;1252;18687;-29
2023/12/22 06:31:11;;;;;;;;;1.00;1.00;;;;;21.39;47.50;97063.38;111529;1252;19576;-29
2023/12/22 06:33:38;;;;;;;;;1.00;1.00;;;;;21.41;47.11;97073.60;111452;1253;19358;-29
2023/12/22 06:36:05;;;;;;;;;;;;;;;21.45;47.10;97078.66;111551;1253;20140;-29
2023/12/22 06:38:33;;;;;;;;;1.00;1.00;;;;;21.45;47.17;97083.47;111450;1252;18193;-29
2023/12/22 06:41:00;;;;;;;;;1.00;1.00;;;;;21.42;47.05;97085.14;111667;1252;19234;-28
2023/12/22 06:43:27;;;;;;;;;1.00;1.00;;;;;21.38;47.03;97088.81;111487;1252;18599;-29
2023/12/22 06:45:55;;;;;;;;;1.00;1.00;;;;;21.42;46.86;97087.08;111708;1252;19615;-29
2023/12/22 06:48:22;;;;;;;;;1.00;1.00;;;;;21.46;46.80;97083.18;111541;1252;19469;-28
2023/12/22 06:50:50;;;;;;;;;1.00;1.00;;;;;21.49;47.23;97085.18;111585;1252;18616;-29
2023/12/22 06:53:17;;;;;;;;;2.00;2.00;;;;;21.48;47.44;97092.48;111621;1260;18247;-28
2023/12/22 06:55:44;;;;;;;;;1.00;1.00;;;;;21.47;47.19;97093.79;111507;1267;18098;-28
2023/12/22 06:58:11;;;;;;;;;1.00;1.00;;;;;21.49;47.40;97098.48;111643;1260;20014;-29
2023/12/22 07:00:39;;;;;;;;;2.00;1.00;;;;;21.48;47.61;97097.30;111465;1267;18138;-29
2023/12/22 07:03:07;;;;;;;;;1.50;1.50;;;;;21.50;47.67;97102.62;111744;1253;20862;-29
2023/12/22 07:05:36;;;;;;;;;2.00;2.00;;;;;21.54;47.67;97100.13;111593;1267;19937;-29
2023/12/22 07:08:03;;;;;;;;;2.00;2.00;;;;;21.55;46.84;97109.40;111569;1260;18199;-29
2023/12/22 07:10:31;;;;;;;;;4.00;4.00;;;;;21.55;45.28;97115.63;111519;1268;17939;-28
2023/12/22 07:12:58;;;;;;;;;2.00;2.00;;;;;21.52;43.81;97124.14;111614;1267;18660;-29
2023/12/22 07:15:25;;;;;;;;;2.00;2.00;;;;;21.51;42.95;97129.10;111551;1263;20947;-29
2023/12/22 07:17:53;;;;;;;;;5.00;4.00;;;;;21.49;41.35;97129.76;111566;1267;17939;-29
2023/12/22 07:20:20;;;;;;;;;3.00;3.00;;;;;21.48;41.37;97122.12;111575;1253;20075;-29
2023/12/22 07:22:48;;;;;;;;;4.00;2.00;;;;;21.45;41.37;97116.77;111585;1267;18129;-29
2023/12/22 07:25:15;;;;;;;;;2.00;2.00;;;;;21.37;42.07;97115.77;111575;1267;19227;-29
2023/12/22 07:27:42;;;;;;;;;4.00;3.33;;;;;21.38;41.87;97117.34;111627;1253;19858;-29
2023/12/22 07:30:11;;;;;;;;;4.00;4.00;;;;;21.38;41.91;97113.08;111624;1260;19479;-29
2023/12/22 07:32:39;;;;;;;;;2.00;2.00;;;;;21.40;42.44;97098.48;111496;1260;19440;-28
2023/12/22 07:35:07;;;;;;;;;4.00;4.00;;;;;21.48;42.67;97104.15;111505;1253;20220;-28
2023/12/22 07:37:35;;;;;;;;;3.00;3.00;;;;;21.51;42.48;97116.17;111647;1252;19559;-29
2023/12/22 07:40:03;;;;;;;;;2.00;2.00;;;;;21.49;42.52;97107.89;111461;1252;19479;-29
2023/12/22 07:42:30;;;;;;;;;2.00;2.00;;;;;21.54;42.65;97112.65;111623;1253;19964;-29
2023/12/22 07:44:57;;;;;;;;;2.00;2.00;;;;;21.55;43.29;97103.89;111518;1253;18312;-29
2023/12/22 07:47:25;;;;;;;;;1.50;1.50;;;;;21.55;43.35;97097.48;111556;1253;19388;-28
2023/12/22 07:49:52;;;;;;;;;2.00;2.00;;;;;21.53;43.33;97093.34;111568;1253;21048;-28
2023/12/22 07:52:19;;;;;;;;;2.00;2.00;;;;;21.48;44.28;97091.86;111475;1253;18153;-29
2023/12/22 07:54:47;;;;;;;;;3.00;2.00;;;;;21.51;44.25;97078.06;111621;1252;19315;-29
2023/12/22 07:57:14;;;;;;;;;1.00;1.00;;;;;21.56;44.46;97081.23;111477;1267;19621;-29
2023/12/22 07:59:42;;;;;;;;;2.00;2.00;;;;;21.53;44.33;97082.61;111595;1252;19596;-28
2023/12/22 08:02:09;;;;;;;;;2.00;2.00;;;;;21.52;44.63;97074.96;111465;1252;19490;-29
2023/12/22 08:04:37;;;;;;;;;2.00;2.00;;;;;21.58;44.70;97076.01;111659;1252;21283;-29
2023/12/22 08:07:04;;;;;;;;;2.00;2.00;;;;;21.56;44.96;97072.15;111464;1252;19456;-29
2023/12/22 08:09:32;;;;;;;;;2.00;2.00;;;;;21.54;45.47;97078.73;111734;1252;19343;-29
2023/12/22 08:12:00;;;;;;;;;2.00;2.00;;;;;21.57;45.66;97084.78;111502;1268;19903;-30
2023/12/22 08:14:27;;;;;;;;;3.00;2.00;;;;;21.58;45.76;97077.63;111655;1253;19630;-29
2023/12/22 08:16:54;;;;;;;;;2.00;2.00;;;;;21.61;45.62;97079.55;111479;1253;19353;-30
2023/12/22 08:19:22;;;;;;;;;3.00;2.00;;;;;21.63;45.69;97081.45;111734;1252;20212;-29
2023/12/22 08:21:49;;;;;;;;;4.50;4.00;;;;;21.60;45.67;97076.73;111423;1253;20678;-29
2023/12/22 08:24:17;;;;;;;;;2.00;2.00;;;;;21.60;45.78;97081.55;111756;1252;19413;-29
2023/12/22 08:26:44;;;;;;;;;2.00;2.00;;;;;21.63;45.60;97089.63;111472;1252;19952;-29
2023/12/22 08:29:11;;;;;;;;;2.00;2.00;;;;;21.64;45.92;97084.90;111721;1262;19172;-29
2023/12/22 08:31:39;;;;;;;;;2.00;2.00;;;;;21.68;45.84;97088.14;111471;1267;17877;-29
2023/12/22 08:34:06;;;;;;;;;1.50;1.50;;;;;21.69;45.78;97093.60;111677;1260;20426;-29
2023/12/22 08:36:33;;;;;;;;;2.00;2.00;;;;;21.71;45.67;97087.70;111526;1260;18201;-29
2023/12/22 08:39:01;;;;;;;;;4.50;4.50;;;;;21.71;45.79;97091.77;111573;1252;19393;-29
2023/12/22 08:41:28;;;;;;;;;2.00;2.00;;;;;21.77;45.81;97095.05;111541;1260;20248;-28
2023/12/22 08:43:55;;;;;;;;;2.67;2.00;;;;;21.81;45.55;97095.90;111425;1254;18173;-29
2023/12/22 08:46:24;;;;;;;;;4.00;2.00;;;;;21.78;45.65;97095.94;111601;1253;19349;-29
2023/12/22 08:48:52;;;;;;;;;1.00;1.00;;;;;21.79;45.44;97112.21;111699;1267;18759;-29
2023/12/22 08:51:19;;;;;;;;;2.00;2.00;;;;;21.79;45.60;97106.61;111469;1268;18192;-30
2023/12/22 08:53:46;;;;;;;;;2.00;2.00;;;;;21.82;45.41;97098.79;111666;1253;17945;-29
2023/12/22 08:56:14;;;;;;;;;2.00;2.00;;;;;21.89;45.30;97107.85;111487;1253;21369;-29
2023/12/22 08:58:42;;;;;;;;;1.00;1.00;;;;;21.94;45.32;97115.88;111707;1260;19605;-29
2023/12/22 09:01:09;;;;;;;;;2.00;2.00;;;;;21.93;45.38;97118.74;111436;1252;19263;-28
2023/12/22 09:03:43;;;;;;;;;2.00;2.00;;;;;21.81;45.57;97103.68;111559;1260;18597;-28
2023/12/22 09:06:10;;;;;;;;;2.00;2.00;;;;;21.83;45.45;97106.36;111512;1267;18184;-29
2023/12/22 09:08:38;;;;;;;;;4.00;2.00;;;;;21.76;45.53;97114.73;111620;1252;19323;-29
2023/12/22 09:11:05;;;;;;;;;2.00;2.00;;;;;21.76;45.51;97109.83;111567;1267;18661;-29
2023/12/22 09:13:32;;;;;;;;;2.00;2.00;;;;;21.72;46.17;97104.77;111654;1253;19597;-29
2023/12/22 09:16:00;;;;;;;;;2.00;2.00;;;;;21.70;46.41;97095.80;111622;1252;19511;-29
2023/12/22 09:18:27;;;;;;;;;1.00;1.00;;;;;21.72;46.23;97100.42;111674;1252;20354;-29
2023/12/22 09:20:54;;;;;;;;;2.00;2.00;;;;;21.71;46.33;97104.91;111529;1267;18135;-28
2023/12/22 09:23:22;;;;;;;;;1.00;1.00;;;;;21.68;46.81;97105.97;111443;1252;19357;-28
2023/12/22 09:25:49;;;;;;;;;4.00;2.00;;;;;21.67;46.37;97112.55;111453;1268;18731;-28
2023/12/22 09:28:16;;;;;;;;;2.00;2.00;;;;;21.68;46.45;97108.92;111449;1263;19489;-29
2023/12/22 09:30:43;;;;;;;;;2.00;1.33;;;;;21.66;46.51;97107.17;111505;1260;19189;-29
2023/12/22 09:33:11;;;;;;;;;2.00;2.00;;;;;21.63;46.78;97113.66;111484;1252;19989;-29
2023/12/22 09:35:41;;;;;;;;;2.00;2.00;;;;;21.62;46.82;97109.21;111539;1260;18184;-29
2023/12/22 09:38:08;;;;;;;;;2.00;2.00;;;;;21.58;46.59;97106.12;111514;1267;19494;-29
2023/12/22 09:40:36;;;;;;;;;1.00;1.00;;;;;21.58;46.26;97116.70;111501;1267;19943;-29
2023/12/22 09:43:05;;;;;;;;;2.00;2.00;;;;;21.59;46.32;97118.11;111538;1260;19746;-29
2023/12/22 09:45:32;;;;;;;;;2.00;2.00;;;;;21.55;46.36;97116.33;111485;1253;19356;-30
2023/12/22 09:48:00;;;;;;;;;2.00;2.00;;;;;21.54;46.13;97118.02;111575;1268;18818;-30
2023/12/22 09:50:28;;;;;;;;;4.00;4.00;;;;;21.53;46.20;97122.60;111512;1252;18361;-29
2023/12/22 09:52:55;;;;;;;;;2.00;2.00;;;;;21.54;46.13;97117.48;111622;1253;19335;-28
2023/12/22 09:55:22;;;;;;;;;2.00;2.00;;;;;21.53;46.27;97110.83;111525;1253;19909;-29
2023/12/22 09:57:50;;;;;;;;;1.00;1.00;;;;;21.52;46.51;97111.05;111658;1252;20844;-29
2023/12/22 10:00:17;;;;;;;;;1.50;1.50;;;;;21.60;45.95;97117.80;111451;1252;18006;-29
2023/12/22 10:02:45;;;;;;;;;2.00;2.00;;;;;21.58;46.55;97110.15;111542;1253;21355;-29
2023/12/22 10:05:13;;;;;;;;;2.00;2.00;;;;;21.54;46.61;97115.39;111479;1262;19552;-29
2023/12/22 10:07:40;;;;;;;;;2.00;2.00;;;;;21.59;46.77;97108.15;111565;1252;19289;-29
2023/12/22 10:10:07;;;;;;;;;2.00;2.00;;;;;21.61;46.95;97103.90;111480;1263;19983;-29
2023/12/22 10:12:35;;;;;;;;;4.00;2.00;;;;;21.61;47.21;97103.42;111655;1252;19617;-29
2023/12/22 10:15:02;;;;;;;;;1.50;1.50;;;;;21.65;46.99;97102.95;111471;1253;19402;-30
2023/12/22 10:17:30;;;;;;;;;2.00;2.00;;;;;21.67;47.30;97099.73;111655;1253;20183;-30
2023/12/22 10:19:57;;;;;;;;;2.00;2.00;;;;;21.68;47.06;97090.79;111501;1253;19585;-30
2023/12/22 10:22:25;;;;;;;;;2.00;2.00;;;;;21.68;47.38;97082.84;111699;1267;17832;-30
2023/12/22 10:24:52;;;;;;;;;2.00;2.00;;;;;21.66;47.55;97088.73;111550;1253;20024;-29
2023/12/22 10:27:22;;;;;;;;;2.00;2.00;;;;;21.67;47.78;97089.45;111560;1267;18207;-29
2023/12/22 10:29:49;;;;;;;;;2.00;2.00;;;;;21.68;47.77;97087.36;111495;1252;19646;-30
2023/12/22 10:32:16;;;;;;;;;2.00;2.00;;;;;21.66;47.82;97085.53;111590;1253;20183;-29
2023/12/22 10:34:44;;;;;;;;;2.00;2.00;;;;;21.65;48.04;97094.09;111497;1252;19627;-29
2023/12/22 10:37:12;;;;;;;;;;;;;;;21.72;47.72;97096.77;111589;1267;19256;-30
2023/12/22 10:39:40;;;;;;;;;3.00;2.00;;;;;21.70;47.86;97102.11;111686;1253;19951;-32
2023/12/22 10:42:07;;;;;;;;;4.00;4.00;;;;;21.72;48.13;97106.11;111553;1260;19481;-30
2023/12/22 10:44:34;;;;;;;;;4.33;4.33;;;;;21.73;48.25;97102.23;111471;1253;19314;-30
2023/12/22 10:47:02;;;;;;;;;5.00;5.00;;;;;21.57;47.71;97101.27;111652;1253;20211;-30
2023/12/22 10:49:31;;;;;;;;;4.00;4.00;;;;;21.45;45.27;97104.64;111484;1252;19689;-29
2023/12/22 10:51:58;;;;;;;;;5.00;4.00;;;;;21.36;44.27;97097.08;111418;1252;19412;-29
2023/12/22 10:54:26;;;;;;;;;7.00;7.00;;;;;21.27;43.70;97091.96;111583;1252;20024;-28
2023/12/22 10:56:53;;;;;;;;;4.00;4.00;;;;;21.26;43.01;97090.77;111471;1267;19499;-29
2023/12/22 10:59:20;;;;;;;;;7.00;4.00;;;;;21.22;42.14;97082.67;111541;1267;17918;-28
2023/12/22 11:01:49;;;;;;;;;5.00;5.00;;;;;21.19;41.84;97081.05;111483;1253;21279;-29
2023/12/22 11:04:16;;;;;;;;;4.00;4.00;;;;;21.25;41.80;97069.66;111592;1254;19595;-28
2023/12/22 11:06:43;;;;;;;;;6.00;5.00;;;;;21.39;42.31;97074.98;111489;1252;18151;-28
2023/12/22 11:09:11;;;;;;;;;5.00;5.00;;;;;21.48;43.16;97073.73;111475;1260;18908;-28
2023/12/22 11:11:38;;;;;;;;;6.00;5.00;;;;;21.48;43.24;97069.84;111492;1267;19538;-28
2023/12/22 11:14:05;;;;;;;;;2.00;2.00;;;;;21.55;43.75;97069.25;111501;1253;20552;-28
2023/12/22 11:16:33;;;;;;;;;7.00;7.00;;;;;21.57;43.73;97069.52;111529;1253;20160;-29
2023/12/22 11:19:00;;;;;;;;;4.00;4.00;;;;;21.55;44.15;97068.00;111521;1253;19626;-28
2023/12/22 11:21:28;;;;;;;;;7.00;5.00;;;;;21.55;44.46;97056.34;111541;1252;19952;-28
2023/12/22 11:23:57;;;;;;;;;6.00;4.50;;;;;21.55;44.81;97064.89;111515;1253;20039;-28
2023/12/22 11:26:24;;;;;;;;;4.00;4.00;;;;;21.59;45.02;97064.27;111397;1268;19467;-28